Brighton, Illinois
Current Conditions -  °F | °C
As of 2:50 PM on Thursday 20 Nov 2014 (Local Time) from KALN Reporting Station
Broken Clouds Broken Clouds  
Wind Chill: 27°   Ceiling: 15000
Heat Index: 36°   Visibility: 10mi
Dew Point: 16°   Wind: 14mph
Humidity: 44%   Direction: 270°W
Pressure: 30.21"   Gusts: NA
Location:  39.04°N, 90.14°W
Report Text: KALN 202050Z 27012KT 10SM SCT090 BKN150 02/M09 A3021
Loading
Personal Weather Stations






























Interactive Weather Map New forecast layout! Learn more

10-Day Weather Forecast

Advertisements
Track Severe Weather on mobile